createdAt,value
2022-08-09T00:00:04.161Z,15.27
2022-08-09T00:02:32.213Z,15.33
2022-08-09T00:05:03.037Z,15.20
2022-08-09T00:07:46.014Z,15.25
2022-08-09T00:10:21.153Z,15.13
2022-08-09T00:12:52.651Z,15.22
2022-08-09T00:15:19.905Z,15.13
2022-08-09T00:18:05.106Z,15.10
2022-08-09T00:20:38.410Z,15.06
2022-08-09T00:23:55.408Z,15.00
2022-08-09T00:25:57.298Z,14.97
2022-08-09T00:28:27.229Z,14.76
2022-08-09T00:30:54.188Z,14.85
2022-08-09T00:33:20.753Z,14.68
2022-08-09T00:36:07.799Z,14.62
2022-08-09T00:38:35.070Z,14.61
2022-08-09T00:41:03.367Z,14.47
2022-08-09T00:44:16.909Z,14.54
2022-08-09T00:46:45.392Z,14.50
2022-08-09T00:49:08.166Z,14.35
2022-08-09T00:51:54.226Z,14.38
2022-08-09T00:54:22.738Z,14.36
2022-08-09T00:56:59.239Z,14.31
2022-08-09T00:59:41.389Z,14.36
2022-08-09T01:02:17.764Z,14.24
2022-08-09T01:04:49.140Z,14.22
2022-08-09T01:07:37.654Z,14.16
2022-08-09T01:10:18.131Z,14.20
2022-08-09T01:12:54.668Z,14.26
2022-08-09T01:15:24.447Z,14.33
2022-08-09T01:17:58.254Z,14.23
2022-08-09T01:20:34.901Z,14.10
2022-08-09T01:24:03.160Z,13.99
2022-08-09T01:26:21.933Z,13.91
2022-08-09T01:28:55.241Z,13.70
2022-08-09T01:32:30.118Z,13.71
2022-08-09T01:34:17.127Z,13.89
2022-08-09T01:36:46.550Z,13.76
2022-08-09T01:39:16.831Z,13.71
2022-08-09T01:41:55.939Z,13.72
2022-08-09T01:44:30.634Z,13.57
2022-08-09T01:46:59.877Z,13.65
2022-08-09T01:49:38.776Z,13.57
2022-08-09T01:52:10.203Z,13.61
2022-08-09T01:54:40.601Z,13.57
2022-08-09T01:57:14.826Z,13.51
2022-08-09T01:59:51.819Z,13.48
2022-08-09T02:02:22.042Z,13.28
2022-08-09T02:04:50.991Z,13.27
2022-08-09T02:08:40.511Z,13.28
2022-08-09T02:10:11.144Z,13.30
2022-08-09T02:12:39.274Z,13.21
2022-08-09T02:15:11.969Z,13.17
2022-08-09T02:18:01.595Z,13.17
2022-08-09T02:20:35.067Z,13.20
2022-08-09T02:23:07.887Z,13.22
2022-08-09T02:25:42.626Z,13.25
2022-08-09T02:28:17.783Z,13.15
2022-08-09T02:30:49.572Z,13.10
2022-08-09T02:33:22.990Z,12.95
2022-08-09T02:36:02.729Z,12.78
2022-08-09T02:38:34.922Z,12.76
2022-08-09T02:41:08.334Z,12.78
2022-08-09T02:43:54.208Z,12.63
2022-08-09T02:46:27.416Z,12.69
2022-08-09T02:48:57.995Z,12.71
2022-08-09T02:51:27.793Z,12.70
2022-08-09T02:54:02.897Z,12.65
2022-08-09T02:56:32.259Z,12.65
2022-08-09T02:59:02.202Z,12.68
2022-08-09T03:01:58.716Z,12.59
2022-08-09T03:04:19.916Z,12.49
2022-08-09T03:06:48.722Z,12.60
2022-08-09T03:09:17.365Z,12.63
2022-08-09T03:12:10.428Z,12.54
2022-08-09T03:14:32.853Z,12.43
2022-08-09T03:17:02.529Z,12.30
2022-08-09T03:19:58.503Z,12.26
2022-08-09T03:22:25.341Z,12.42
2022-08-09T03:25:25.814Z,12.30
2022-08-09T03:27:56.228Z,12.26
2022-08-09T03:30:29.291Z,12.03
2022-08-09T03:33:12.768Z,11.97
2022-08-09T03:36:11.206Z,11.99
2022-08-09T03:38:30.492Z,12.13
2022-08-09T03:40:57.375Z,12.14
2022-08-09T03:43:23.916Z,12.13
2022-08-09T03:46:03.342Z,12.19
2022-08-09T03:48:43.021Z,12.19
2022-08-09T03:51:56.441Z,12.19
2022-08-09T03:54:10.629Z,12.18
2022-08-09T03:56:38.337Z,12.08
2022-08-09T03:59:08.609Z,11.95
2022-08-09T04:01:41.896Z,11.91
2022-08-09T04:04:14.724Z,11.87
2022-08-09T04:06:48.879Z,11.84
2022-08-09T04:11:59.026Z,11.84
2022-08-09T04:14:59.143Z,12.04
2022-08-09T04:17:15.689Z,12.17
2022-08-09T04:19:51.406Z,12.23
2022-08-09T04:22:22.500Z,12.23
2022-08-09T04:24:49.079Z,12.37
2022-08-09T04:27:17.463Z,12.35
2022-08-09T04:29:49.587Z,12.34
2022-08-09T04:32:17.145Z,12.44
2022-08-09T04:35:01.236Z,12.35
2022-08-09T04:37:42.178Z,12.42
2022-08-09T04:40:28.857Z,12.35
2022-08-09T04:43:01.058Z,12.41
2022-08-09T04:45:30.457Z,12.32
2022-08-09T04:48:00.175Z,12.34
2022-08-09T04:50:35.021Z,12.41
2022-08-09T04:53:05.393Z,12.45
2022-08-09T04:55:57.478Z,12.46
2022-08-09T04:58:24.901Z,12.43
2022-08-09T05:00:52.632Z,12.57
2022-08-09T05:03:41.305Z,12.38
2022-08-09T05:06:11.487Z,12.63
2022-08-09T05:08:38.263Z,12.54
2022-08-09T05:11:06.717Z,12.50
2022-08-09T05:13:38.668Z,12.75
2022-08-09T05:16:06.786Z,12.97
2022-08-09T05:18:57.223Z,13.07
2022-08-09T05:21:24.451Z,13.21
2022-08-09T05:24:00.892Z,13.17
2022-08-09T05:26:37.211Z,13.34
2022-08-09T05:29:17.328Z,13.49
2022-08-09T05:31:46.849Z,13.60
2022-08-09T05:34:17.690Z,13.86
2022-08-09T05:36:46.826Z,14.47
2022-08-09T05:39:14.085Z,14.62
2022-08-09T05:41:55.354Z,15.36
2022-08-09T05:44:22.212Z,15.91
2022-08-09T05:46:55.817Z,16.54
2022-08-09T05:50:23.547Z,17.14
2022-08-09T05:52:10.528Z,16.90
2022-08-09T05:54:37.119Z,16.82
2022-08-09T05:57:06.294Z,16.77
2022-08-09T05:59:33.222Z,17.14
2022-08-09T06:02:00.151Z,17.04
2022-08-09T06:04:34.576Z,17.40
2022-08-09T06:07:01.794Z,17.53
2022-08-09T06:09:53.852Z,17.59
2022-08-09T06:12:16.442Z,17.91
2022-08-09T06:14:43.749Z,17.79
2022-08-09T06:17:10.407Z,18.01
2022-08-09T06:19:37.515Z,17.85
2022-08-09T06:22:04.923Z,18.67
2022-08-09T06:24:32.859Z,18.77
2022-08-09T06:27:01.895Z,18.92
2022-08-09T06:29:28.473Z,19.42
2022-08-09T06:32:24.635Z,19.83
2022-08-09T06:34:41.683Z,19.67
2022-08-09T06:37:09.934Z,19.72
2022-08-09T06:39:48.248Z,19.76
2022-08-09T06:42:30.567Z,21.20
2022-08-09T06:45:00.204Z,20.28
2022-08-09T06:47:39.907Z,20.37
2022-08-09T06:50:14.314Z,20.99
2022-08-09T06:52:45.597Z,21.40
2022-08-09T06:55:16.745Z,22.63
2022-08-09T06:58:03.264Z,23.33
2022-08-09T07:00:54.214Z,23.70
2022-08-09T07:03:16.600Z,24.08
2022-08-09T07:06:02.295Z,24.50
2022-08-09T07:08:30.633Z,24.96
2022-08-09T07:10:58.683Z,25.31
2022-08-09T07:13:29.438Z,25.09
2022-08-09T07:16:41.037Z,25.23
2022-08-09T07:18:43.592Z,23.99
2022-08-09T07:21:10.351Z,23.61
2022-08-09T07:23:46.778Z,24.11
2022-08-09T07:26:25.802Z,24.01
2022-08-09T07:29:08.781Z,24.06
2022-08-09T07:31:45.415Z,24.30
2022-08-09T07:34:20.160Z,24.08
2022-08-09T07:36:48.000Z,24.36
2022-08-09T07:39:20.168Z,24.36
2022-08-09T07:42:03.539Z,24.76
2022-08-09T07:44:50.900Z,24.58
2022-08-09T07:47:19.155Z,24.50
2022-08-09T07:50:04.345Z,24.78
2022-08-09T07:52:32.879Z,24.79
2022-08-09T07:54:59.542Z,24.98
2022-08-09T07:57:35.938Z,25.01
2022-08-09T08:00:04.374Z,25.19
2022-08-09T08:02:35.911Z,25.46
2022-08-09T08:05:17.796Z,25.03
2022-08-09T08:09:02.323Z,25.29
2022-08-09T08:10:34.313Z,25.30
2022-08-09T08:13:03.710Z,25.34
2022-08-09T08:15:35.610Z,25.38
2022-08-09T08:18:04.737Z,25.41
2022-08-09T08:20:33.185Z,25.57
2022-08-09T08:23:06.355Z,25.56
2022-08-09T08:25:46.625Z,25.31
2022-08-09T08:28:31.854Z,25.51
2022-08-09T08:31:02.452Z,25.24
2022-08-09T08:33:49.642Z,25.23
2022-08-09T08:36:28.288Z,25.03
2022-08-09T08:38:56.302Z,25.44
2022-08-09T08:41:24.066Z,25.40
2022-08-09T08:43:52.863Z,25.33
2022-08-09T08:46:33.365Z,25.29
2022-08-09T08:49:02.052Z,25.39
2022-08-09T08:51:40.281Z,25.33
2022-08-09T08:54:10.196Z,25.72
2022-08-09T08:56:46.840Z,25.74
2022-08-09T08:59:19.491Z,25.78
2022-08-09T09:01:52.789Z,25.67
2022-08-09T09:04:26.804Z,25.62
2022-08-09T09:06:57.201Z,25.19
2022-08-09T09:09:58.355Z,25.39
2022-08-09T09:12:16.764Z,25.38
2022-08-09T09:14:49.186Z,25.47
2022-08-09T09:17:16.773Z,25.49
2022-08-09T09:19:44.323Z,25.46
2022-08-09T09:22:12.848Z,25.68
2022-08-09T09:24:44.908Z,25.83
2022-08-09T09:28:04.525Z,25.55
2022-08-09T09:30:23.808Z,25.95
2022-08-09T09:33:15.365Z,25.31
2022-08-09T09:36:00.926Z,25.51
2022-08-09T09:38:40.585Z,25.47
2022-08-09T09:41:07.310Z,25.32
2022-08-09T09:43:41.757Z,25.46
2022-08-09T09:46:46.047Z,25.38
2022-08-09T09:49:32.175Z,25.66
2022-08-09T09:52:33.689Z,25.89
2022-08-09T09:55:01.546Z,25.52
2022-08-09T09:58:01.363Z,25.74
2022-08-09T10:00:23.095Z,25.55
2022-08-09T10:02:54.808Z,25.32
2022-08-09T10:05:26.976Z,25.50
2022-08-09T10:08:27.180Z,25.53
2022-08-09T10:10:54.734Z,25.70
2022-08-09T10:13:42.840Z,25.55
2022-08-09T10:16:57.310Z,25.54
2022-08-09T10:18:59.963Z,25.66
2022-08-09T10:21:27.301Z,25.63
2022-08-09T10:23:55.517Z,25.52
2022-08-09T10:26:24.679Z,25.68
2022-08-09T10:29:32.749Z,25.51
2022-08-09T10:32:27.921Z,25.28
2022-08-09T10:34:32.716Z,25.29
2022-08-09T10:37:01.098Z,25.35
2022-08-09T10:39:28.928Z,25.38
2022-08-09T10:41:55.695Z,25.23
2022-08-09T10:44:25.207Z,25.36
2022-08-09T10:48:12.783Z,25.54
2022-08-09T10:50:26.956Z,25.83
2022-08-09T10:53:10.357Z,25.89
2022-08-09T10:55:58.602Z,25.76
2022-08-09T10:58:32.357Z,25.89
2022-08-09T11:03:01.742Z,25.75
2022-08-09T11:04:28.448Z,25.77
2022-08-09T11:07:27.561Z,25.93
2022-08-09T11:10:14.244Z,26.02
2022-08-09T11:12:42.188Z,26.08
2022-08-09T11:15:34.200Z,25.83
2022-08-09T11:18:41.939Z,25.79
2022-08-09T11:21:44.218Z,25.64
2022-08-09T11:24:25.584Z,25.80
2022-08-09T11:26:56.213Z,25.62
2022-08-09T11:30:04.997Z,25.54
2022-08-09T11:32:44.766Z,25.86
2022-08-09T11:35:15.740Z,25.77
2022-08-09T11:37:44.165Z,25.85
2022-08-09T11:40:27.795Z,25.85
2022-08-09T11:42:58.509Z,25.93
2022-08-09T11:45:37.714Z,25.93
2022-08-09T11:48:26.330Z,25.88
2022-08-09T11:51:19.752Z,25.74
2022-08-09T11:54:13.500Z,25.87
2022-08-09T11:56:48.116Z,26.10
2022-08-09T11:59:30.670Z,26.05
2022-08-09T12:02:34.483Z,26.18
2022-08-09T12:04:50.692Z,25.97
2022-08-09T12:07:27.851Z,26.02
2022-08-09T12:09:59.190Z,25.93
2022-08-09T12:12:44.254Z,26.07
2022-08-09T12:15:22.285Z,25.96
2022-08-09T12:18:15.785Z,26.05
2022-08-09T12:20:42.422Z,25.96
2022-08-09T12:23:09.883Z,26.12
2022-08-09T12:25:38.440Z,26.14
2022-08-09T12:29:15.031Z,26.17
2022-08-09T12:31:58.292Z,26.24
2022-08-09T12:34:04.989Z,26.15
2022-08-09T12:36:34.120Z,26.15
2022-08-09T12:39:04.286Z,25.98
2022-08-09T12:41:39.056Z,26.00
2022-08-09T12:44:10.355Z,26.13
2022-08-09T12:46:40.255Z,26.02
2022-08-09T12:49:07.959Z,26.12
2022-08-09T12:52:00.218Z,26.21
2022-08-09T12:54:21.547Z,26.29
2022-08-09T12:56:51.197Z,26.40
2022-08-09T12:59:23.644Z,26.38
2022-08-09T13:02:01.740Z,26.46
2022-08-09T13:04:36.184Z,26.44
2022-08-09T13:07:11.279Z,26.46
2022-08-09T13:09:40.908Z,26.59
2022-08-09T13:12:10.340Z,26.60
2022-08-09T13:14:44.140Z,26.76
2022-08-09T13:17:44.323Z,26.89
2022-08-09T13:20:10.038Z,26.75
2022-08-09T13:23:06.125Z,26.70
2022-08-09T13:25:42.023Z,26.83
2022-08-09T13:28:18.819Z,26.56
2022-08-09T13:32:12.648Z,26.38
2022-08-09T13:33:55.188Z,26.40
2022-08-09T13:36:37.585Z,26.56
2022-08-09T13:41:46.432Z,26.72
2022-08-09T13:42:01.627Z,26.65
2022-08-09T13:44:28.894Z,26.62
2022-08-09T13:47:26.818Z,26.88
2022-08-09T13:49:57.220Z,26.89
2022-08-09T13:52:25.280Z,26.80
2022-08-09T13:54:59.673Z,26.99
2022-08-09T13:57:36.424Z,26.88
2022-08-09T14:00:07.651Z,27.14
2022-08-09T14:02:42.018Z,27.06
2022-08-09T14:05:10.184Z,26.92
2022-08-09T14:07:41.029Z,27.10
2022-08-09T14:10:17.427Z,26.91
2022-08-09T14:12:57.500Z,27.09
2022-08-09T14:16:09.995Z,27.31
2022-08-09T14:18:19.719Z,27.29
2022-08-09T14:20:56.627Z,27.46
2022-08-09T14:23:54.189Z,27.52
2022-08-09T14:26:10.153Z,27.30
2022-08-09T14:28:37.715Z,27.36
2022-08-09T14:31:04.361Z,27.23
2022-08-09T14:33:38.092Z,27.10
2022-08-09T14:36:19.482Z,27.07
2022-08-09T14:38:46.387Z,27.48
2022-08-09T14:41:40.333Z,27.65
2022-08-09T14:44:06.365Z,27.44
2022-08-09T14:46:55.116Z,27.68
2022-08-09T14:49:23.574Z,27.57
2022-08-09T14:51:50.330Z,27.14
2022-08-09T14:54:16.938Z,27.07
2022-08-09T14:56:58.067Z,27.26
2022-08-09T14:59:27.058Z,27.44
2022-08-09T15:01:54.140Z,27.42
2022-08-09T15:04:23.321Z,27.44
2022-08-09T15:06:50.663Z,27.52
2022-08-09T15:10:03.314Z,27.50
2022-08-09T15:12:08.212Z,27.51
2022-08-09T15:14:38.467Z,27.08
2022-08-09T15:17:05.765Z,27.14
2022-08-09T15:19:36.284Z,26.96
2022-08-09T15:22:03.393Z,26.95
2022-08-09T15:24:30.094Z,26.81
2022-08-09T15:26:57.613Z,26.90
2022-08-09T15:30:57.251Z,26.80
2022-08-09T15:32:29.320Z,26.86
2022-08-09T15:34:59.289Z,26.64
2022-08-09T15:37:38.098Z,26.54
2022-08-09T15:40:14.845Z,26.50
2022-08-09T15:42:43.257Z,26.37
2022-08-09T15:45:12.533Z,26.27
2022-08-09T15:47:52.336Z,26.30
2022-08-09T15:50:28.810Z,26.59
2022-08-09T15:53:05.967Z,26.77
2022-08-09T15:55:35.215Z,26.73
2022-08-09T15:58:26.827Z,26.85
2022-08-09T16:00:54.029Z,26.61
2022-08-09T16:03:29.417Z,26.36
2022-08-09T16:06:07.051Z,26.25
2022-08-09T16:08:53.607Z,26.13
2022-08-09T16:11:20.183Z,26.01
2022-08-09T16:14:06.248Z,25.91
2022-08-09T16:16:33.381Z,25.94
2022-08-09T16:19:01.312Z,26.03
2022-08-09T16:21:31.606Z,26.23
2022-08-09T16:24:02.773Z,26.26
2022-08-09T16:26:35.297Z,26.20
2022-08-09T16:29:05.929Z,26.22
2022-08-09T16:32:19.712Z,26.23
2022-08-09T16:34:26.195Z,26.09
2022-08-09T16:36:54.120Z,25.92
2022-08-09T16:39:20.851Z,25.70
2022-08-09T16:42:02.873Z,25.68
2022-08-09T16:44:31.976Z,25.64
2022-08-09T16:47:03.925Z,25.71
2022-08-09T16:50:32.232Z,25.89
2022-08-09T16:52:33.694Z,25.95
2022-08-09T16:55:00.401Z,26.04
2022-08-09T16:57:26.978Z,26.05
2022-08-09T17:00:14.745Z,25.99
2022-08-09T17:02:41.713Z,25.91
2022-08-09T17:05:10.352Z,25.95
2022-08-09T17:08:46.139Z,25.65
2022-08-09T17:10:28.023Z,25.87
2022-08-09T17:12:56.771Z,25.85
2022-08-09T17:15:58.508Z,25.87
2022-08-09T17:18:10.711Z,25.76
2022-08-09T17:20:43.483Z,25.75
2022-08-09T17:23:14.991Z,25.86
2022-08-09T17:25:41.799Z,25.96
2022-08-09T17:28:08.526Z,25.91
2022-08-09T17:30:36.764Z,25.79
2022-08-09T17:33:05.285Z,25.78
2022-08-09T17:35:41.001Z,25.73
2022-08-09T17:38:12.948Z,25.35
2022-08-09T17:40:46.319Z,25.22
2022-08-09T17:43:34.250Z,25.28
2022-08-09T17:46:02.868Z,25.14
2022-08-09T17:48:33.967Z,25.08
2022-08-09T17:51:09.760Z,25.05
2022-08-09T17:53:51.489Z,24.99
2022-08-09T17:56:27.320Z,24.88
2022-08-09T17:58:54.807Z,24.86
2022-08-09T18:01:22.420Z,24.67
2022-08-09T18:03:50.249Z,24.62
2022-08-09T18:06:31.432Z,24.54
2022-08-09T18:09:00.776Z,24.22
2022-08-09T18:11:28.930Z,24.21
2022-08-09T18:13:58.806Z,23.94
2022-08-09T18:16:30.691Z,23.88
2022-08-09T18:18:59.532Z,23.79
2022-08-09T18:21:31.565Z,23.52
2022-08-09T18:24:12.845Z,23.54
2022-08-09T18:26:46.881Z,23.37
2022-08-09T18:30:39.648Z,23.25
2022-08-09T18:32:02.815Z,23.25
2022-08-09T18:34:29.846Z,23.15
2022-08-09T18:36:56.415Z,23.04
2022-08-09T18:39:23.004Z,22.73
2022-08-09T18:41:53.151Z,22.65
2022-08-09T18:44:20.374Z,22.51
2022-08-09T18:47:03.553Z,22.49
2022-08-09T18:49:41.624Z,22.36
2022-08-09T18:52:13.563Z,22.16
2022-08-09T18:54:49.773Z,22.09
2022-08-09T18:57:22.222Z,21.97
2022-08-09T18:59:57.628Z,21.85
2022-08-09T19:02:31.747Z,21.74
2022-08-09T19:05:04.489Z,21.53
2022-08-09T19:07:59.296Z,21.39
2022-08-09T19:10:36.995Z,21.28
2022-08-09T19:13:22.694Z,21.22
2022-08-09T19:15:50.980Z,21.13
2022-08-09T19:18:35.822Z,20.97
2022-08-09T19:21:05.407Z,20.88
2022-08-09T19:24:33.555Z,20.77
2022-08-09T19:26:31.128Z,20.54
2022-08-09T19:29:01.509Z,20.47
2022-08-09T19:31:28.750Z,20.40
2022-08-09T19:33:57.899Z,20.32
2022-08-09T19:36:30.953Z,20.15
2022-08-09T19:38:59.469Z,20.07
2022-08-09T19:41:35.481Z,19.99
2022-08-09T19:44:04.409Z,19.89
2022-08-09T19:46:35.034Z,19.84
2022-08-09T19:50:07.437Z,19.68
2022-08-09T19:52:03.952Z,19.53
2022-08-09T19:54:30.817Z,19.52
2022-08-09T19:56:57.843Z,19.35
2022-08-09T19:59:58.343Z,19.20
2022-08-09T20:02:17.102Z,19.18
2022-08-09T20:04:59.919Z,19.05
2022-08-09T20:07:56.836Z,18.99
2022-08-09T20:10:17.581Z,18.78
2022-08-09T20:12:49.027Z,18.71
2022-08-09T20:16:34.684Z,18.63
2022-08-09T20:18:04.263Z,18.56
2022-08-09T20:20:35.061Z,18.38
2022-08-09T20:23:04.343Z,18.37
2022-08-09T20:25:38.248Z,18.29
2022-08-09T20:28:27.986Z,18.28
2022-08-09T20:31:04.823Z,18.17
2022-08-09T20:33:41.307Z,18.14
2022-08-09T20:36:11.358Z,18.13
2022-08-09T20:39:00.276Z,18.04
2022-08-09T20:41:32.121Z,17.90
2022-08-09T20:44:02.220Z,17.89
2022-08-09T20:46:42.260Z,17.81
2022-08-09T20:49:11.484Z,17.83
2022-08-09T20:51:41.594Z,17.80
2022-08-09T20:54:12.435Z,17.74
2022-08-09T20:56:41.135Z,17.64
2022-08-09T20:59:07.881Z,17.67
2022-08-09T21:01:50.379Z,17.57
2022-08-09T21:05:52.520Z,17.45
2022-08-09T21:07:11.450Z,17.33
2022-08-09T21:09:46.127Z,17.26
2022-08-09T21:15:13.063Z,17.18
2022-08-09T21:18:22.111Z,16.99
2022-08-09T21:20:30.397Z,16.94
2022-08-09T21:22:57.829Z,16.88
2022-08-09T21:25:25.390Z,16.88
2022-08-09T21:27:53.219Z,16.83
2022-08-09T21:30:22.290Z,16.81
2022-08-09T21:32:50.898Z,16.86
2022-08-09T21:35:18.067Z,16.86
2022-08-09T21:37:58.776Z,16.78
2022-08-09T21:40:30.695Z,16.69
2022-08-09T21:42:59.732Z,16.66
2022-08-09T21:45:28.007Z,16.54
2022-08-09T21:47:55.949Z,16.49
2022-08-09T21:50:35.761Z,16.49
2022-08-09T21:53:23.856Z,16.48
2022-08-09T21:55:53.622Z,16.46
2022-08-09T21:58:20.168Z,16.27
2022-08-09T22:00:48.738Z,16.24
2022-08-09T22:03:25.518Z,16.21
2022-08-09T22:05:53.118Z,16.09
2022-08-09T22:08:24.425Z,16.03
2022-08-09T22:11:00.526Z,16.00
2022-08-09T22:13:43.469Z,15.93
2022-08-09T22:16:10.900Z,15.94
2022-08-09T22:18:53.683Z,15.86
2022-08-09T22:21:24.258Z,15.76
2022-08-09T22:23:59.563Z,15.61
2022-08-09T22:26:35.622Z,15.63
2022-08-09T22:29:07.473Z,15.69
2022-08-09T22:31:36.193Z,15.71
2022-08-09T22:34:14.503Z,15.68
2022-08-09T22:36:45.832Z,15.55
2022-08-09T22:39:20.710Z,15.49
2022-08-09T22:41:59.845Z,15.48
2022-08-09T22:44:29.861Z,15.44
2022-08-09T22:48:11.729Z,15.40
2022-08-09T22:49:47.751Z,15.30
2022-08-09T22:52:19.658Z,15.30
2022-08-09T22:54:47.361Z,15.34
2022-08-09T22:57:14.399Z,15.25
2022-08-09T22:59:58.189Z,15.21
2022-08-09T23:02:25.764Z,15.15
2022-08-09T23:04:56.950Z,15.18
2022-08-09T23:08:21.408Z,15.10
2022-08-09T23:10:10.960Z,15.17
2022-08-09T23:12:37.898Z,15.14
2022-08-09T23:15:05.221Z,15.19
2022-08-09T23:17:32.017Z,15.19
2022-08-09T23:20:01.091Z,15.13
2022-08-09T23:22:34.234Z,14.99
2022-08-09T23:25:02.359Z,14.85
2022-08-09T23:27:28.932Z,14.74
2022-08-09T23:29:55.552Z,14.65
2022-08-09T23:32:22.154Z,14.58
2022-08-09T23:34:48.809Z,14.61
2022-08-09T23:37:17.707Z,14.56
2022-08-09T23:39:48.303Z,14.47
2022-08-09T23:42:15.107Z,14.27
2022-08-09T23:44:41.806Z,14.26
2022-08-09T23:47:08.403Z,14.27
2022-08-09T23:49:35.101Z,14.17
2022-08-09T23:52:01.668Z,14.05
2022-08-09T23:54:29.573Z,14.15
2022-08-09T23:56:58.358Z,14.22
2022-08-09T23:59:25.335Z,14.20
